createdAt,value
2023-04-09T00:01:33.518Z,66.40
2023-04-09T00:04:00.940Z,68.30
2023-04-09T00:06:27.699Z,68.70
2023-04-09T00:08:54.389Z,68.50
2023-04-09T00:11:21.533Z,68.50
2023-04-09T00:13:48.098Z,68.50
2023-04-09T00:16:14.705Z,68.60
2023-04-09T00:18:41.705Z,68.40
2023-04-09T00:21:08.692Z,68.50
2023-04-09T00:23:36.002Z,68.50
2023-04-09T00:26:02.725Z,68.40
2023-04-09T00:28:29.304Z,68.50
2023-04-09T00:30:55.959Z,69.00
2023-04-09T00:33:22.525Z,70.20
2023-04-09T00:35:49.164Z,69.90
2023-04-09T00:38:16.335Z,69.50
2023-04-09T00:40:42.946Z,68.00
2023-04-09T00:43:09.628Z,70.80
2023-04-09T00:45:36.513Z,71.00
2023-04-09T00:48:03.194Z,71.30
2023-04-09T00:50:29.766Z,71.20
2023-04-09T00:52:56.406Z,71.40
2023-04-09T00:55:23.489Z,72.40
2023-04-09T00:57:50.257Z,73.20
2023-04-09T01:00:16.840Z,72.90
2023-04-09T01:02:43.879Z,72.80
2023-04-09T01:05:11.258Z,72.60
2023-04-09T01:07:37.845Z,72.70
2023-04-09T01:10:04.383Z,72.80
2023-04-09T01:12:41.724Z,73.50
2023-04-09T01:15:15.071Z,73.60
2023-04-09T01:17:44.364Z,74.10
2023-04-09T01:20:18.890Z,74.20
2023-04-09T01:23:08.876Z,73.20
2023-04-09T01:25:45.514Z,72.30
2023-04-09T01:28:18.891Z,72.80
2023-04-09T01:30:48.953Z,72.20
2023-04-09T01:33:16.430Z,71.10
2023-04-09T01:35:43.682Z,71.90
2023-04-09T01:38:11.203Z,70.70
2023-04-09T01:40:38.128Z,68.90
2023-04-09T01:43:06.382Z,68.80
2023-04-09T01:45:33.030Z,68.10
2023-04-09T01:48:00.008Z,68.20
2023-04-09T01:50:27.112Z,68.70
2023-04-09T01:52:53.805Z,69.70
2023-04-09T01:55:20.339Z,70.10
2023-04-09T01:57:46.885Z,70.50
2023-04-09T02:00:13.835Z,70.60
2023-04-09T02:02:45.398Z,70.10
2023-04-09T02:05:15.365Z,70.20
2023-04-09T02:07:46.682Z,70.90
2023-04-09T02:10:13.521Z,71.50
2023-04-09T02:12:42.740Z,70.60
2023-04-09T02:15:09.479Z,70.50
2023-04-09T02:17:36.181Z,69.50
2023-04-09T02:20:03.023Z,69.50
2023-04-09T02:22:30.020Z,69.70
2023-04-09T02:24:56.634Z,70.20
2023-04-09T02:27:23.245Z,70.30
2023-04-09T02:29:50.471Z,70.60
2023-04-09T02:32:17.036Z,70.80
2023-04-09T02:34:44.140Z,71.60
2023-04-09T02:37:10.815Z,72.60
2023-04-09T02:39:37.600Z,71.70
2023-04-09T02:42:04.255Z,71.60
2023-04-09T02:44:30.813Z,72.60
2023-04-09T02:46:57.730Z,72.80
2023-04-09T02:49:24.355Z,73.40
2023-04-09T02:51:51.078Z,73.50
2023-04-09T02:54:17.719Z,72.30
2023-04-09T02:56:44.330Z,71.90
2023-04-09T02:59:11.105Z,72.50
2023-04-09T03:01:37.828Z,71.40
2023-04-09T03:04:04.548Z,71.70
2023-04-09T03:06:31.290Z,71.00
2023-04-09T03:08:57.840Z,70.30
2023-04-09T03:11:24.455Z,71.30
2023-04-09T03:13:51.010Z,70.60
2023-04-09T03:16:17.704Z,71.20
2023-04-09T03:18:44.351Z,70.20
2023-04-09T03:21:12.259Z,70.30
2023-04-09T03:23:41.037Z,70.20
2023-04-09T03:26:07.843Z,69.70
2023-04-09T03:28:34.550Z,68.20
2023-04-09T03:31:01.224Z,70.50
2023-04-09T03:33:27.830Z,71.20
2023-04-09T03:35:54.417Z,70.90
2023-04-09T03:38:21.191Z,71.10
2023-04-09T03:40:48.065Z,72.80
2023-04-09T03:43:14.745Z,76.50
2023-04-09T03:45:41.337Z,78.00
2023-04-09T03:48:07.957Z,79.10
2023-04-09T03:50:41.508Z,80.70
2023-04-09T03:53:08.177Z,79.50
2023-04-09T03:55:34.952Z,80.40
2023-04-09T03:58:01.609Z,80.20
2023-04-09T04:00:28.214Z,79.60
2023-04-09T04:02:54.985Z,78.10
2023-04-09T04:05:23.016Z,78.10
2023-04-09T04:07:49.788Z,76.90
2023-04-09T04:10:16.367Z,80.20
2023-04-09T04:12:42.889Z,78.00
2023-04-09T04:15:09.753Z,78.20
2023-04-09T04:17:36.325Z,80.10
2023-04-09T04:20:03.102Z,80.30
2023-04-09T04:22:29.735Z,80.90
2023-04-09T04:24:56.307Z,81.90
2023-04-09T04:27:22.954Z,79.60
2023-04-09T04:32:16.482Z,75.90
2023-04-09T04:34:43.034Z,76.30
2023-04-09T04:37:09.640Z,77.80
2023-04-09T04:39:36.271Z,83.90
2023-04-09T04:42:02.870Z,85.20
2023-04-09T04:44:29.400Z,84.30
2023-04-09T04:46:56.159Z,83.10
2023-04-09T04:49:22.913Z,82.20
2023-04-09T04:51:49.472Z,82.00
2023-04-09T04:54:16.380Z,82.00
2023-04-09T04:56:42.939Z,82.40
2023-04-09T04:59:09.540Z,82.50
2023-04-09T05:01:36.267Z,82.40
2023-04-09T05:04:04.142Z,82.50
2023-04-09T05:06:31.557Z,82.50
2023-04-09T05:08:58.205Z,82.50
2023-04-09T05:11:25.482Z,83.00
2023-04-09T05:13:52.076Z,81.60
2023-04-09T05:16:19.865Z,80.10
2023-04-09T05:18:47.071Z,80.30
2023-04-09T05:21:13.650Z,82.40
2023-04-09T05:23:40.198Z,82.40
2023-04-09T05:26:06.925Z,82.50
2023-04-09T05:28:33.526Z,81.90
2023-04-09T05:31:00.313Z,81.20
2023-04-09T05:33:27.441Z,77.60
2023-04-09T05:35:54.018Z,76.80
2023-04-09T05:38:20.641Z,75.00
2023-04-09T05:40:48.901Z,75.40
2023-04-09T05:43:15.542Z,75.90
2023-04-09T05:45:42.094Z,71.50
2023-04-09T05:48:08.941Z,69.80
2023-04-09T05:50:47.556Z,67.50
2023-04-09T05:53:20.453Z,65.60
2023-04-09T05:55:49.082Z,60.50
2023-04-09T05:58:21.757Z,55.80
2023-04-09T06:00:48.393Z,53.30
2023-04-09T06:03:15.044Z,51.30
2023-04-09T06:05:41.695Z,47.40
2023-04-09T06:08:08.385Z,44.40
2023-04-09T06:10:34.932Z,43.20
2023-04-09T06:13:01.550Z,36.80
2023-04-09T06:15:28.262Z,33.60
2023-04-09T06:17:57.408Z,32.00
2023-04-09T06:20:25.461Z,28.90
2023-04-09T06:22:51.962Z,26.00
2023-04-09T06:25:18.529Z,24.10
2023-04-09T06:27:45.069Z,19.30
2023-04-09T06:30:11.858Z,16.60
2023-04-09T06:32:47.274Z,10.40
2023-04-09T06:35:20.622Z,5.80
2023-04-09T06:37:47.273Z,8.50
2023-04-09T06:40:14.396Z,1.00
2023-04-09T06:42:41.016Z,1.00
2023-04-09T06:45:08.605Z,1.00
2023-04-09T06:47:36.296Z,1.00
2023-04-09T06:50:03.219Z,1.00
2023-04-09T06:52:29.918Z,1.00
2023-04-09T06:54:56.446Z,1.00
2023-04-09T06:57:23.022Z,1.00
2023-04-09T06:59:49.520Z,1.00
2023-04-09T07:02:16.400Z,1.00
2023-04-09T07:04:43.042Z,1.00
2023-04-09T07:07:09.669Z,1.00
2023-04-09T07:09:36.477Z,1.00
2023-04-09T07:12:03.038Z,1.00
2023-04-09T07:14:30.837Z,1.00
2023-04-09T07:16:57.359Z,1.00
2023-04-09T07:19:23.931Z,1.00
2023-04-09T07:21:51.659Z,1.00
2023-04-09T07:24:18.179Z,1.00
2023-04-09T07:26:44.772Z,1.00
2023-04-09T07:29:11.487Z,1.00
2023-04-09T07:31:38.116Z,1.00
2023-04-09T07:34:04.880Z,1.00
2023-04-09T07:36:31.804Z,1.00
2023-04-09T07:38:58.732Z,1.00
2023-04-09T07:41:25.494Z,1.00
2023-04-09T07:43:52.065Z,1.00
2023-04-09T07:46:19.843Z,1.00
2023-04-09T07:48:48.303Z,1.00
2023-04-09T07:51:15.281Z,1.00
2023-04-09T07:53:41.869Z,1.00
2023-04-09T07:56:08.410Z,1.00
2023-04-09T07:58:35.257Z,1.00
2023-04-09T08:01:01.788Z,1.00
2023-04-09T08:03:28.642Z,1.00
2023-04-09T08:05:55.312Z,1.00
2023-04-09T08:08:21.973Z,1.00
2023-04-09T08:10:48.924Z,1.00
2023-04-09T08:13:15.468Z,1.00
2023-04-09T08:15:42.043Z,1.00
2023-04-09T08:18:09.308Z,1.00
2023-04-09T08:20:36.036Z,1.00
2023-04-09T08:23:02.879Z,1.00
2023-04-09T08:25:29.432Z,1.00
2023-04-09T08:27:55.972Z,1.00
2023-04-09T08:30:22.649Z,1.00
2023-04-09T08:32:49.868Z,1.00
2023-04-09T08:35:16.607Z,1.00
2023-04-09T08:37:43.519Z,1.00
2023-04-09T08:40:11.581Z,1.00
2023-04-09T08:42:45.103Z,1.00
2023-04-09T08:45:12.734Z,1.00
2023-04-09T08:47:41.711Z,1.00
2023-04-09T08:50:08.783Z,1.00
2023-04-09T08:52:36.095Z,1.00
2023-04-09T08:55:02.851Z,1.00
2023-04-09T08:57:30.040Z,1.00
2023-04-09T08:59:56.678Z,1.00
2023-04-09T09:02:24.206Z,1.00
2023-04-09T09:04:50.957Z,1.00
2023-04-09T09:07:17.997Z,1.00
2023-04-09T09:09:54.562Z,1.00
2023-04-09T09:12:36.620Z,1.00
2023-04-09T09:15:03.433Z,1.00
2023-04-09T09:17:30.075Z,1.00
2023-04-09T09:19:57.020Z,1.00
2023-04-09T09:22:24.632Z,1.00
2023-04-09T09:24:52.310Z,1.00
2023-04-09T09:27:32.608Z,1.00
2023-04-09T09:29:59.463Z,1.00
2023-04-09T09:32:26.030Z,1.00
2023-04-09T09:35:03.272Z,1.00
2023-04-09T09:37:30.378Z,1.00
2023-04-09T09:39:58.427Z,1.00
2023-04-09T09:42:26.128Z,1.00
2023-04-09T09:44:53.542Z,1.00
2023-04-09T09:47:20.690Z,1.00
2023-04-09T09:49:48.305Z,1.00
2023-04-09T09:52:15.198Z,1.00
2023-04-09T09:54:43.291Z,1.00
2023-04-09T09:57:10.832Z,1.00
2023-04-09T09:59:38.824Z,1.00
2023-04-09T10:02:06.569Z,1.00
2023-04-09T10:04:34.874Z,1.00
2023-04-09T10:07:04.015Z,1.00
2023-04-09T10:09:31.240Z,1.00
2023-04-09T10:11:59.910Z,1.00
2023-04-09T10:14:28.764Z,1.00
2023-04-09T10:16:55.426Z,1.00
2023-04-09T10:19:22.317Z,1.00
2023-04-09T10:21:54.683Z,1.00
2023-04-09T10:24:21.870Z,1.00
2023-04-09T10:26:48.784Z,1.00
2023-04-09T10:29:16.324Z,1.00
2023-04-09T10:31:52.183Z,1.00
2023-04-09T10:34:20.914Z,1.00
2023-04-09T10:36:55.786Z,1.00
2023-04-09T10:39:26.316Z,1.00
2023-04-09T10:41:53.651Z,1.00
2023-04-09T10:44:21.473Z,1.00
2023-04-09T10:46:48.131Z,1.00
2023-04-09T10:49:18.940Z,1.00
2023-04-09T10:52:13.509Z,1.00
2023-04-09T10:54:43.830Z,1.00
2023-04-09T10:57:11.392Z,1.00
2023-04-09T10:59:40.939Z,1.00
2023-04-09T11:02:08.903Z,1.00
2023-04-09T11:04:41.605Z,1.00
2023-04-09T11:07:08.873Z,1.00
2023-04-09T11:09:35.986Z,1.00
2023-04-09T11:12:03.659Z,1.00
2023-04-09T11:14:30.805Z,1.00
2023-04-09T11:16:57.439Z,1.00
2023-04-09T11:19:23.972Z,1.00
2023-04-09T11:21:51.048Z,1.00
2023-04-09T11:24:18.637Z,1.00
2023-04-09T11:26:45.867Z,1.00
2023-04-09T11:29:12.929Z,1.00
2023-04-09T11:31:39.553Z,1.00
2023-04-09T11:34:09.909Z,1.00
2023-04-09T11:36:36.404Z,1.00
2023-04-09T11:39:03.215Z,1.00
2023-04-09T11:41:36.992Z,1.00
2023-04-09T11:44:04.403Z,1.00
2023-04-09T11:46:33.049Z,1.00
2023-04-09T11:48:59.714Z,1.00
2023-04-09T11:51:27.356Z,1.00
2023-04-09T11:53:53.959Z,1.00
2023-04-09T11:56:20.637Z,1.00
2023-04-09T11:58:47.962Z,1.00
2023-04-09T12:01:14.941Z,1.00
2023-04-09T12:03:41.765Z,1.00
2023-04-09T12:06:09.274Z,1.00
2023-04-09T12:08:36.328Z,1.00
2023-04-09T12:11:13.447Z,1.00
2023-04-09T12:13:43.258Z,1.00
2023-04-09T12:16:13.277Z,1.00
2023-04-09T12:18:40.276Z,1.00
2023-04-09T12:21:06.900Z,1.00
2023-04-09T12:23:33.541Z,1.00
2023-04-09T12:26:03.116Z,1.00
2023-04-09T12:28:29.958Z,1.00
2023-04-09T12:30:58.231Z,1.00
2023-04-09T12:33:24.900Z,1.00
2023-04-09T12:35:51.628Z,1.00
2023-04-09T12:38:18.198Z,1.00
2023-04-09T12:40:45.737Z,1.00
2023-04-09T12:43:12.233Z,1.00
2023-04-09T12:45:39.152Z,1.00
2023-04-09T12:48:05.876Z,1.00
2023-04-09T12:50:33.264Z,1.00
2023-04-09T12:52:59.905Z,1.00
2023-04-09T12:55:26.578Z,1.00
2023-04-09T12:57:53.107Z,1.00
2023-04-09T13:00:19.662Z,1.00
2023-04-09T13:02:46.494Z,1.00
2023-04-09T13:05:13.273Z,1.00
2023-04-09T13:07:42.240Z,1.00
2023-04-09T13:10:09.984Z,1.00
2023-04-09T13:12:36.605Z,1.00
2023-04-09T13:15:03.840Z,1.00
2023-04-09T13:17:30.527Z,1.00
2023-04-09T13:19:57.122Z,1.00
2023-04-09T13:22:23.694Z,1.00
2023-04-09T13:24:50.215Z,1.00
2023-04-09T13:27:16.976Z,1.00
2023-04-09T13:29:43.564Z,1.00
2023-04-09T13:32:11.018Z,1.00
2023-04-09T13:34:38.507Z,1.00
2023-04-09T13:37:05.349Z,1.00
2023-04-09T13:39:33.055Z,1.00
2023-04-09T13:42:00.220Z,1.00
2023-04-09T13:44:27.515Z,1.00
2023-04-09T13:46:54.108Z,1.00
2023-04-09T13:49:21.294Z,1.00
2023-04-09T13:51:48.908Z,1.00
2023-04-09T13:54:15.486Z,1.00
2023-04-09T13:56:43.333Z,1.00
2023-04-09T13:59:09.863Z,1.00
2023-04-09T14:01:37.361Z,1.00
2023-04-09T14:04:04.073Z,1.00
2023-04-09T14:06:31.439Z,1.00
2023-04-09T14:08:58.016Z,1.00
2023-04-09T14:11:27.593Z,1.00
2023-04-09T14:13:54.906Z,1.00
2023-04-09T14:16:22.448Z,1.00
2023-04-09T14:18:49.081Z,1.00
2023-04-09T14:21:15.753Z,1.00
2023-04-09T14:23:42.255Z,1.00
2023-04-09T14:26:09.005Z,1.00
2023-04-09T14:28:35.589Z,1.00
2023-04-09T14:31:02.218Z,1.00
2023-04-09T14:33:28.870Z,1.00
2023-04-09T14:35:55.539Z,1.00
2023-04-09T14:38:23.970Z,1.00
2023-04-09T14:40:50.868Z,1.00
2023-04-09T14:43:17.402Z,1.00
2023-04-09T14:45:44.129Z,1.00
2023-04-09T14:48:10.927Z,1.00
2023-04-09T14:50:37.914Z,1.00
2023-04-09T14:53:04.426Z,1.00
2023-04-09T14:55:31.058Z,1.00
2023-04-09T14:57:58.568Z,1.00
2023-04-09T15:00:25.424Z,1.00
2023-04-09T15:02:52.164Z,1.00
2023-04-09T15:05:19.354Z,1.00
2023-04-09T15:07:45.902Z,1.00
2023-04-09T15:10:12.485Z,1.00
2023-04-09T15:12:39.072Z,1.00
2023-04-09T15:15:07.722Z,1.00
2023-04-09T15:17:35.461Z,1.00
2023-04-09T15:20:02.400Z,1.00
2023-04-09T15:22:28.948Z,1.00
2023-04-09T15:24:55.601Z,1.00
2023-04-09T15:27:22.160Z,1.00
2023-04-09T15:29:48.752Z,1.00
2023-04-09T15:32:15.356Z,1.00
2023-04-09T15:34:42.069Z,1.00
2023-04-09T15:37:08.611Z,1.00
2023-04-09T15:39:35.276Z,1.00
2023-04-09T15:42:02.422Z,1.00
2023-04-09T15:44:29.039Z,1.00
2023-04-09T15:46:56.038Z,1.00
2023-04-09T15:49:22.856Z,1.00
2023-04-09T15:51:49.424Z,1.00
2023-04-09T15:54:15.991Z,1.00
2023-04-09T15:56:43.100Z,1.00
2023-04-09T15:59:09.726Z,1.00
2023-04-09T16:01:36.635Z,1.00
2023-04-09T16:04:04.379Z,1.00
2023-04-09T16:06:31.281Z,1.00
2023-04-09T16:08:57.933Z,1.00
2023-04-09T16:11:25.307Z,1.00
2023-04-09T16:13:52.294Z,1.00
2023-04-09T16:16:19.114Z,1.00
2023-04-09T16:18:45.945Z,1.00
2023-04-09T16:21:12.718Z,1.00
2023-04-09T16:23:39.653Z,1.00
2023-04-09T16:26:06.346Z,1.00
2023-04-09T16:28:34.503Z,1.00
2023-04-09T16:31:01.102Z,1.00
2023-04-09T16:33:27.668Z,1.00
2023-04-09T16:35:54.236Z,1.00
2023-04-09T16:38:20.927Z,1.00
2023-04-09T16:40:47.468Z,1.00
2023-04-09T16:43:14.027Z,1.00
2023-04-09T16:45:40.668Z,1.00
2023-04-09T16:48:12.022Z,1.00
2023-04-09T16:50:40.514Z,1.00
2023-04-09T16:53:07.546Z,1.00
2023-04-09T16:55:34.493Z,1.00
2023-04-09T16:58:01.010Z,1.00
2023-04-09T17:00:27.708Z,1.00
2023-04-09T17:02:55.690Z,1.00
2023-04-09T17:05:22.911Z,1.00
2023-04-09T17:07:49.426Z,1.00
2023-04-09T17:10:16.154Z,1.00
2023-04-09T17:12:42.681Z,1.00
2023-04-09T17:15:10.582Z,1.00
2023-04-09T17:17:38.010Z,1.00
2023-04-09T17:20:04.947Z,1.00
2023-04-09T17:22:31.511Z,1.00
2023-04-09T17:24:58.063Z,1.00
2023-04-09T17:27:24.596Z,1.00
2023-04-09T17:29:51.689Z,1.00
2023-04-09T17:32:18.734Z,1.00
2023-04-09T17:34:47.524Z,1.00
2023-04-09T17:37:14.045Z,1.00
2023-04-09T17:39:41.574Z,1.00
2023-04-09T17:42:08.271Z,1.00
2023-04-09T17:44:35.427Z,1.00
2023-04-09T17:47:06.554Z,1.00
2023-04-09T17:49:33.468Z,1.00
2023-04-09T17:52:00.528Z,1.00
2023-04-09T17:54:31.631Z,1.00
2023-04-09T17:56:58.546Z,1.00
2023-04-09T17:59:26.181Z,1.00
2023-04-09T18:01:54.967Z,1.00
2023-04-09T18:04:23.647Z,1.00
2023-04-09T18:06:50.472Z,1.00
2023-04-09T18:11:44.718Z,1.00
2023-04-09T18:14:11.302Z,1.00
2023-04-09T18:21:32.006Z,1.00
2023-04-09T18:23:58.982Z,1.00
2023-04-09T18:26:25.705Z,1.00
2023-04-09T18:28:52.473Z,1.00
2023-04-09T18:31:19.291Z,1.00
2023-04-09T18:33:45.875Z,1.00
2023-04-09T18:36:12.444Z,1.00
2023-04-09T18:38:39.476Z,1.00
2023-04-09T18:43:33.777Z,1.00
2023-04-09T18:46:00.359Z,1.00
2023-04-09T18:50:54.074Z,1.00
2023-04-09T18:53:20.690Z,1.00
2023-04-09T18:55:47.260Z,1.00
2023-04-09T18:58:15.006Z,1.00
2023-04-09T19:00:42.285Z,1.00
2023-04-09T19:03:09.684Z,1.00
2023-04-09T19:05:36.547Z,1.00
2023-04-09T19:08:04.225Z,1.00
2023-04-09T19:10:32.889Z,1.00
2023-04-09T19:12:59.433Z,1.00
2023-04-09T19:15:26.728Z,1.00
2023-04-09T19:17:53.651Z,1.00
2023-04-09T19:20:20.406Z,1.00
2023-04-09T19:22:50.423Z,1.00
2023-04-09T19:25:17.444Z,1.00
2023-04-09T19:27:44.384Z,1.00
2023-04-09T19:30:11.411Z,1.00
2023-04-09T19:32:38.210Z,1.00
2023-04-09T19:35:05.483Z,1.00
2023-04-09T19:37:32.122Z,1.00
2023-04-09T19:40:02.427Z,1.00
2023-04-09T19:42:29.117Z,1.00
2023-04-09T19:44:55.644Z,2.50
2023-04-09T19:47:22.172Z,1.00
2023-04-09T19:49:49.110Z,1.00
2023-04-09T19:52:15.705Z,1.00
2023-04-09T19:54:42.467Z,1.00
2023-04-09T19:57:08.983Z,1.10
2023-04-09T19:59:39.748Z,2.10
2023-04-09T20:02:07.273Z,3.50
2023-04-09T20:04:35.454Z,4.60
2023-04-09T20:07:02.062Z,4.50
2023-04-09T20:09:29.059Z,4.80
2023-04-09T20:11:55.699Z,6.60
2023-04-09T20:14:22.221Z,8.50
2023-04-09T20:16:48.797Z,9.60
2023-04-09T20:19:15.517Z,10.50
2023-04-09T20:21:43.491Z,10.40
2023-04-09T20:24:10.319Z,11.70
2023-04-09T20:26:36.929Z,12.70
2023-04-09T20:29:03.463Z,13.50
2023-04-09T20:31:30.913Z,14.40
2023-04-09T20:33:57.959Z,14.80
2023-04-09T20:36:24.612Z,14.90
2023-04-09T20:38:51.739Z,14.00
2023-04-09T20:41:18.485Z,13.70
2023-04-09T20:43:45.498Z,14.60
2023-04-09T20:46:12.405Z,14.80
2023-04-09T20:48:39.334Z,14.80
2023-04-09T20:51:12.271Z,14.80
2023-04-09T20:53:38.948Z,13.60
2023-04-09T20:56:06.100Z,12.70
2023-04-09T20:58:33.387Z,13.00
2023-04-09T21:01:07.383Z,13.00
2023-04-09T21:03:35.018Z,13.80
2023-04-09T21:06:02.125Z,13.50
2023-04-09T21:08:29.212Z,14.60
2023-04-09T21:10:56.081Z,14.60
2023-04-09T21:13:23.228Z,13.80
2023-04-09T21:15:49.903Z,12.70
2023-04-09T21:18:17.059Z,12.70
2023-04-09T21:20:45.399Z,13.20
2023-04-09T21:23:12.777Z,14.90
2023-04-09T21:25:39.473Z,16.00
2023-04-09T21:28:07.819Z,16.60
2023-04-09T21:30:35.050Z,18.20
2023-04-09T21:33:02.306Z,19.20
2023-04-09T21:35:29.024Z,19.00
2023-04-09T21:37:55.643Z,18.90
2023-04-09T21:40:23.153Z,19.20
2023-04-09T21:42:50.064Z,20.50
2023-04-09T21:45:18.793Z,20.80
2023-04-09T21:47:46.081Z,21.00
2023-04-09T21:50:13.775Z,20.50
2023-04-09T21:52:40.513Z,21.00
2023-04-09T21:55:07.844Z,20.70
2023-04-09T21:57:34.444Z,20.70
2023-04-09T22:00:02.038Z,21.40
2023-04-09T22:02:28.944Z,22.40
2023-04-09T22:04:55.772Z,23.20
2023-04-09T22:07:22.661Z,22.70
2023-04-09T22:09:49.187Z,23.10
2023-04-09T22:12:15.786Z,23.20
2023-04-09T22:14:42.420Z,22.80
2023-04-09T22:17:09.099Z,22.40
2023-04-09T22:19:35.643Z,23.00
2023-04-09T22:22:02.248Z,23.00
2023-04-09T22:24:30.390Z,24.50
2023-04-09T22:26:59.014Z,25.80
2023-04-09T22:29:26.281Z,26.80
2023-04-09T22:31:53.013Z,27.30
2023-04-09T22:34:21.699Z,27.30
2023-04-09T22:36:48.990Z,26.80
2023-04-09T22:39:15.762Z,25.90
2023-04-09T22:41:42.713Z,26.80
2023-04-09T22:46:36.631Z,26.70
2023-04-09T22:49:05.329Z,26.90
2023-04-09T22:54:01.885Z,28.10
2023-04-09T22:58:55.897Z,29.20
2023-04-09T23:01:23.225Z,29.30
2023-04-09T23:03:50.333Z,29.60
2023-04-09T23:06:17.139Z,31.00
2023-04-09T23:08:44.033Z,31.00
2023-04-09T23:11:10.847Z,32.80
2023-04-09T23:13:37.820Z,31.50
2023-04-09T23:16:06.395Z,32.90
2023-04-09T23:18:33.575Z,34.00
2023-04-09T23:28:21.749Z,34.40
2023-04-09T23:30:48.369Z,35.70
2023-04-09T23:33:14.931Z,36.10
2023-04-09T23:35:41.919Z,37.30
2023-04-09T23:45:29.704Z,36.20
2023-04-09T23:47:57.554Z,36.20
2023-04-09T23:50:24.548Z,37.20
2023-04-09T23:52:51.708Z,38.30
2023-04-09T23:55:18.840Z,40.20
2023-04-09T23:57:45.521Z,40.20
